sensor_id;sensor_type;location;lat;lon;timestamp;temperature;humidity
35497;DHT22;21609;49.298;6.844;2023-02-01T00:01:32;14.60;53.10
35497;DHT22;21609;49.298;6.844;2023-02-01T00:03:57;14.60;53.10
35497;DHT22;21609;49.298;6.844;2023-02-01T00:06:23;14.60;53.10
35497;DHT22;21609;49.298;6.844;2023-02-01T00:08:51;14.60;53.10
35497;DHT22;21609;49.298;6.844;2023-02-01T00:11:17;14.60;53.10
35497;DHT22;21609;49.298;6.844;2023-02-01T00:13:43;14.60;53.10
35497;DHT22;21609;49.298;6.844;2023-02-01T00:16:17;14.60;53.00
35497;DHT22;21609;49.298;6.844;2023-02-01T00:18:44;14.60;53.00
35497;DHT22;21609;49.298;6.844;2023-02-01T00:21:11;14.60;53.00
35497;DHT22;21609;49.298;6.844;2023-02-01T00:23:37;14.60;53.00
35497;DHT22;21609;49.298;6.844;2023-02-01T00:26:06;14.60;53.10
35497;DHT22;21609;49.298;6.844;2023-02-01T00:28:32;14.60;53.00
35497;DHT22;21609;49.298;6.844;2023-02-01T00:31:02;14.60;53.10
35497;DHT22;21609;49.298;6.844;2023-02-01T00:33:29;14.60;53.10
35497;DHT22;21609;49.298;6.844;2023-02-01T00:36:06;14.60;53.00
35497;DHT22;21609;49.298;6.844;2023-02-01T00:38:33;14.60;53.10
35497;DHT22;21609;49.298;6.844;2023-02-01T00:41:16;14.60;53.10
35497;DHT22;21609;49.298;6.844;2023-02-01T00:43:43;14.60;53.10
35497;DHT22;21609;49.298;6.844;2023-02-01T00:46:10;14.60;53.00
35497;DHT22;21609;49.298;6.844;2023-02-01T00:48:35;14.60;53.00
35497;DHT22;21609;49.298;6.844;2023-02-01T00:51:07;14.60;53.00
35497;DHT22;21609;49.298;6.844;2023-02-01T00:53:32;14.60;53.00
35497;DHT22;21609;49.298;6.844;2023-02-01T00:55:58;14.60;53.10
35497;DHT22;21609;49.298;6.844;2023-02-01T00:58:24;14.60;53.00
35497;DHT22;21609;49.298;6.844;2023-02-01T01:03:26;14.60;53.10
35497;DHT22;21609;49.298;6.844;2023-02-01T01:05:51;14.60;53.00
35497;DHT22;21609;49.298;6.844;2023-02-01T01:08:21;14.60;53.10
35497;DHT22;21609;49.298;6.844;2023-02-01T01:10:47;14.60;53.10
35497;DHT22;21609;49.298;6.844;2023-02-01T01:13:14;14.60;53.10
35497;DHT22;21609;49.298;6.844;2023-02-01T01:15:40;14.60;53.10
35497;DHT22;21609;49.298;6.844;2023-02-01T01:18:06;14.60;53.10
35497;DHT22;21609;49.298;6.844;2023-02-01T01:20:34;14.60;53.10
35497;DHT22;21609;49.298;6.844;2023-02-01T01:23:00;14.60;53.00
35497;DHT22;21609;49.298;6.844;2023-02-01T01:25:26;14.60;53.10
35497;DHT22;21609;49.298;6.844;2023-02-01T01:27:51;14.60;53.10
35497;DHT22;21609;49.298;6.844;2023-02-01T01:30:17;14.60;53.10
35497;DHT22;21609;49.298;6.844;2023-02-01T01:32:43;14.60;53.10
35497;DHT22;21609;49.298;6.844;2023-02-01T01:35:09;14.60;53.10
35497;DHT22;21609;49.298;6.844;2023-02-01T01:37:35;14.60;53.10
35497;DHT22;21609;49.298;6.844;2023-02-01T01:40:01;14.60;53.10
35497;DHT22;21609;49.298;6.844;2023-02-01T01:42:27;14.60;53.10
35497;DHT22;21609;49.298;6.844;2023-02-01T01:45:02;14.60;53.10
35497;DHT22;21609;49.298;6.844;2023-02-01T01:47:37;14.60;53.00
35497;DHT22;21609;49.298;6.844;2023-02-01T01:50:07;14.60;53.10
35497;DHT22;21609;49.298;6.844;2023-02-01T01:52:34;14.60;53.10
35497;DHT22;21609;49.298;6.844;2023-02-01T01:55:00;14.60;53.10
35497;DHT22;21609;49.298;6.844;2023-02-01T01:57:31;14.60;53.10
35497;DHT22;21609;49.298;6.844;2023-02-01T02:00:17;14.60;53.10
35497;DHT22;21609;49.298;6.844;2023-02-01T02:02:46;14.60;53.10
35497;DHT22;21609;49.298;6.844;2023-02-01T02:05:13;14.60;53.10
35497;DHT22;21609;49.298;6.844;2023-02-01T02:07:43;14.60;53.10
35497;DHT22;21609;49.298;6.844;2023-02-01T02:10:11;14.60;53.10
35497;DHT22;21609;49.298;6.844;2023-02-01T02:12:41;14.60;53.10
35497;DHT22;21609;49.298;6.844;2023-02-01T02:15:07;14.60;53.10
35497;DHT22;21609;49.298;6.844;2023-02-01T02:17:52;14.60;53.10
35497;DHT22;21609;49.298;6.844;2023-02-01T02:26:11;14.60;53.00
35497;DHT22;21609;49.298;6.844;2023-02-01T02:29:07;14.60;53.10
35497;DHT22;21609;49.298;6.844;2023-02-01T02:31:56;14.60;53.10
35497;DHT22;21609;49.298;6.844;2023-02-01T02:40:25;14.60;53.10
35497;DHT22;21609;49.298;6.844;2023-02-01T02:45:50;14.60;53.10
35497;DHT22;21609;49.298;6.844;2023-02-01T02:48:56;14.60;53.10
35497;DHT22;21609;49.298;6.844;2023-02-01T02:51:34;14.60;53.00
35497;DHT22;21609;49.298;6.844;2023-02-01T02:54:33;14.60;53.10
35497;DHT22;21609;49.298;6.844;2023-02-01T02:57:31;14.60;53.10
35497;DHT22;21609;49.298;6.844;2023-02-01T03:00:19;14.60;53.10
35497;DHT22;21609;49.298;6.844;2023-02-01T03:03:03;14.60;53.10
35497;DHT22;21609;49.298;6.844;2023-02-01T03:05:49;14.60;53.10
35497;DHT22;21609;49.298;6.844;2023-02-01T03:08:22;14.60;53.10
35497;DHT22;21609;49.298;6.844;2023-02-01T03:10:53;14.70;53.20
35497;DHT22;21609;49.298;6.844;2023-02-01T03:13:48;14.60;53.10
35497;DHT22;21609;49.298;6.844;2023-02-01T03:18:56;14.60;53.00
35497;DHT22;21609;49.298;6.844;2023-02-01T03:21:31;14.70;53.10
35497;DHT22;21609;49.298;6.844;2023-02-01T03:24:03;14.70;53.10
35497;DHT22;21609;49.298;6.844;2023-02-01T03:26:31;14.60;53.10
35497;DHT22;21609;49.298;6.844;2023-02-01T03:29:05;14.60;53.10
35497;DHT22;21609;49.298;6.844;2023-02-01T03:31:33;14.60;53.10
35497;DHT22;21609;49.298;6.844;2023-02-01T03:33:59;14.60;53.10
35497;DHT22;21609;49.298;6.844;2023-02-01T03:36:25;14.60;53.10
35497;DHT22;21609;49.298;6.844;2023-02-01T03:38:55;14.70;53.20
35497;DHT22;21609;49.298;6.844;2023-02-01T03:46:36;14.70;53.20
35497;DHT22;21609;49.298;6.844;2023-02-01T03:49:06;14.70;53.20
35497;DHT22;21609;49.298;6.844;2023-02-01T03:51:36;14.70;53.10
35497;DHT22;21609;49.298;6.844;2023-02-01T03:54:05;14.70;53.20
35497;DHT22;21609;49.298;6.844;2023-02-01T03:56:33;14.70;53.10
35497;DHT22;21609;49.298;6.844;2023-02-01T03:59:01;14.70;53.20
35497;DHT22;21609;49.298;6.844;2023-02-01T04:01:28;14.70;53.20
35497;DHT22;21609;49.298;6.844;2023-02-01T04:03:55;14.70;53.20
35497;DHT22;21609;49.298;6.844;2023-02-01T04:06:21;14.70;53.20
35497;DHT22;21609;49.298;6.844;2023-02-01T04:08:46;14.60;53.10
35497;DHT22;21609;49.298;6.844;2023-02-01T04:11:12;14.60;53.10
35497;DHT22;21609;49.298;6.844;2023-02-01T04:13:38;14.60;53.10
35497;DHT22;21609;49.298;6.844;2023-02-01T04:16:03;14.60;53.10
35497;DHT22;21609;49.298;6.844;2023-02-01T04:18:29;14.70;53.10
35497;DHT22;21609;49.298;6.844;2023-02-01T04:20:55;14.70;53.10
35497;DHT22;21609;49.298;6.844;2023-02-01T04:23:20;14.70;53.10
35497;DHT22;21609;49.298;6.844;2023-02-01T04:25:46;14.60;53.00
35497;DHT22;21609;49.298;6.844;2023-02-01T04:28:11;14.70;53.10
35497;DHT22;21609;49.298;6.844;2023-02-01T04:30:37;14.70;53.10
35497;DHT22;21609;49.298;6.844;2023-02-01T04:33:03;14.70;53.10
35497;DHT22;21609;49.298;6.844;2023-02-01T04:35:31;14.70;53.10
35497;DHT22;21609;49.298;6.844;2023-02-01T04:37:57;14.70;53.10
35497;DHT22;21609;49.298;6.844;2023-02-01T04:40:22;14.70;53.10
35497;DHT22;21609;49.298;6.844;2023-02-01T04:42:48;14.70;53.70
35497;DHT22;21609;49.298;6.844;2023-02-01T04:45:13;14.70;53.10
35497;DHT22;21609;49.298;6.844;2023-02-01T04:47:39;14.70;53.10
35497;DHT22;21609;49.298;6.844;2023-02-01T04:50:05;14.70;53.00
35497;DHT22;21609;49.298;6.844;2023-02-01T04:52:31;14.80;53.10
35497;DHT22;21609;49.298;6.844;2023-02-01T04:54:57;14.70;53.10
35497;DHT22;21609;49.298;6.844;2023-02-01T04:57:24;14.80;53.20
35497;DHT22;21609;49.298;6.844;2023-02-01T04:59:50;14.70;53.10
35497;DHT22;21609;49.298;6.844;2023-02-01T05:02:16;14.80;53.10
35497;DHT22;21609;49.298;6.844;2023-02-01T05:04:41;14.70;53.00
35497;DHT22;21609;49.298;6.844;2023-02-01T05:07:07;14.70;53.10
35497;DHT22;21609;49.298;6.844;2023-02-01T05:09:32;14.70;53.10
35497;DHT22;21609;49.298;6.844;2023-02-01T05:11:58;14.80;53.10
35497;DHT22;21609;49.298;6.844;2023-02-01T05:14:42;14.70;53.10
35497;DHT22;21609;49.298;6.844;2023-02-01T05:17:08;14.70;53.10
35497;DHT22;21609;49.298;6.844;2023-02-01T05:19:33;14.70;53.10
35497;DHT22;21609;49.298;6.844;2023-02-01T05:21:59;14.70;53.10
35497;DHT22;21609;49.298;6.844;2023-02-01T05:24:24;14.70;53.20
35497;DHT22;21609;49.298;6.844;2023-02-01T05:26:52;14.70;53.10
35497;DHT22;21609;49.298;6.844;2023-02-01T05:29:18;14.70;53.20
35497;DHT22;21609;49.298;6.844;2023-02-01T05:31:45;14.70;53.20
35497;DHT22;21609;49.298;6.844;2023-02-01T05:34:11;14.70;53.20
35497;DHT22;21609;49.298;6.844;2023-02-01T05:36:37;14.70;53.20
35497;DHT22;21609;49.298;6.844;2023-02-01T05:39:03;14.70;53.20
35497;DHT22;21609;49.298;6.844;2023-02-01T05:41:29;14.70;53.20
35497;DHT22;21609;49.298;6.844;2023-02-01T05:43:54;14.70;53.20
35497;DHT22;21609;49.298;6.844;2023-02-01T05:46:20;14.70;53.20
35497;DHT22;21609;49.298;6.844;2023-02-01T05:48:46;14.70;53.20
35497;DHT22;21609;49.298;6.844;2023-02-01T05:51:11;14.70;53.20
35497;DHT22;21609;49.298;6.844;2023-02-01T05:53:37;14.70;53.20
35497;DHT22;21609;49.298;6.844;2023-02-01T05:56:03;14.70;53.20
35497;DHT22;21609;49.298;6.844;2023-02-01T05:58:29;14.70;53.20
35497;DHT22;21609;49.298;6.844;2023-02-01T06:00:55;14.70;53.20
35497;DHT22;21609;49.298;6.844;2023-02-01T06:03:20;14.70;53.20
35497;DHT22;21609;49.298;6.844;2023-02-01T06:05:46;14.70;53.20
35497;DHT22;21609;49.298;6.844;2023-02-01T06:08:13;14.70;53.20
35497;DHT22;21609;49.298;6.844;2023-02-01T06:10:38;14.70;53.20
35497;DHT22;21609;49.298;6.844;2023-02-01T06:13:04;14.70;53.20
35497;DHT22;21609;49.298;6.844;2023-02-01T06:15:31;14.70;53.20
35497;DHT22;21609;49.298;6.844;2023-02-01T06:17:57;14.70;53.20
35497;DHT22;21609;49.298;6.844;2023-02-01T06:20:23;14.70;53.20
35497;DHT22;21609;49.298;6.844;2023-02-01T06:22:49;14.70;53.20
35497;DHT22;21609;49.298;6.844;2023-02-01T06:25:14;14.70;53.20
35497;DHT22;21609;49.298;6.844;2023-02-01T06:27:40;14.70;53.20
35497;DHT22;21609;49.298;6.844;2023-02-01T06:30:06;14.70;53.20
35497;DHT22;21609;49.298;6.844;2023-02-01T06:32:32;14.70;53.20
35497;DHT22;21609;49.298;6.844;2023-02-01T06:34:57;14.70;53.20
35497;DHT22;21609;49.298;6.844;2023-02-01T06:37:24;14.70;53.20
35497;DHT22;21609;49.298;6.844;2023-02-01T06:39:54;14.70;53.20
35497;DHT22;21609;49.298;6.844;2023-02-01T06:42:20;14.70;53.20
35497;DHT22;21609;49.298;6.844;2023-02-01T06:44:46;14.70;53.20
35497;DHT22;21609;49.298;6.844;2023-02-01T06:47:11;14.70;53.20
35497;DHT22;21609;49.298;6.844;2023-02-01T06:49:37;14.70;53.20
35497;DHT22;21609;49.298;6.844;2023-02-01T06:52:03;14.70;53.20
35497;DHT22;21609;49.298;6.844;2023-02-01T06:54:28;14.70;53.20
35497;DHT22;21609;49.298;6.844;2023-02-01T06:56:57;14.70;53.20
35497;DHT22;21609;49.298;6.844;2023-02-01T06:59:23;14.70;53.20
35497;DHT22;21609;49.298;6.844;2023-02-01T07:01:48;14.70;53.20
35497;DHT22;21609;49.298;6.844;2023-02-01T07:04:14;14.70;53.20
35497;DHT22;21609;49.298;6.844;2023-02-01T07:06:40;14.70;53.20
35497;DHT22;21609;49.298;6.844;2023-02-01T07:09:06;14.70;53.20
35497;DHT22;21609;49.298;6.844;2023-02-01T07:11:31;14.70;53.80
35497;DHT22;21609;49.298;6.844;2023-02-01T07:13:58;14.70;53.20
35497;DHT22;21609;49.298;6.844;2023-02-01T07:16:23;14.70;53.20
35497;DHT22;21609;49.298;6.844;2023-02-01T07:18:50;14.70;53.20
35497;DHT22;21609;49.298;6.844;2023-02-01T07:21:16;14.70;53.20
35497;DHT22;21609;49.298;6.844;2023-02-01T07:23:42;14.70;53.20
35497;DHT22;21609;49.298;6.844;2023-02-01T07:26:09;14.70;53.20
35497;DHT22;21609;49.298;6.844;2023-02-01T07:28:36;14.70;53.20
35497;DHT22;21609;49.298;6.844;2023-02-01T07:31:07;14.70;53.20
35497;DHT22;21609;49.298;6.844;2023-02-01T07:33:33;14.70;53.20
35497;DHT22;21609;49.298;6.844;2023-02-01T07:36:01;14.70;53.20
35497;DHT22;21609;49.298;6.844;2023-02-01T07:38:28;14.80;53.30
35497;DHT22;21609;49.298;6.844;2023-02-01T07:41:04;14.80;53.10
35497;DHT22;21609;49.298;6.844;2023-02-01T07:43:30;14.80;53.20
35497;DHT22;21609;49.298;6.844;2023-02-01T07:45:56;14.80;53.20
35497;DHT22;21609;49.298;6.844;2023-02-01T07:48:23;14.80;53.20
35497;DHT22;21609;49.298;6.844;2023-02-01T07:50:57;14.80;53.20
35497;DHT22;21609;49.298;6.844;2023-02-01T07:53:22;14.70;53.20
35497;DHT22;21609;49.298;6.844;2023-02-01T07:55:48;14.80;53.30
35497;DHT22;21609;49.298;6.844;2023-02-01T07:58:13;14.70;53.20
35497;DHT22;21609;49.298;6.844;2023-02-01T08:00:39;14.70;53.20
35497;DHT22;21609;49.298;6.844;2023-02-01T08:03:23;14.80;53.30
35497;DHT22;21609;49.298;6.844;2023-02-01T08:05:54;14.70;53.20
35497;DHT22;21609;49.298;6.844;2023-02-01T08:08:20;14.80;53.30
35497;DHT22;21609;49.298;6.844;2023-02-01T08:10:45;14.80;53.30
35497;DHT22;21609;49.298;6.844;2023-02-01T08:13:11;14.80;53.20
35497;DHT22;21609;49.298;6.844;2023-02-01T08:15:36;14.80;53.20
35497;DHT22;21609;49.298;6.844;2023-02-01T08:18:02;14.80;53.20
35497;DHT22;21609;49.298;6.844;2023-02-01T08:20:27;14.80;53.20
35497;DHT22;21609;49.298;6.844;2023-02-01T08:22:53;14.70;53.30
35497;DHT22;21609;49.298;6.844;2023-02-01T08:25:20;14.80;53.40
35497;DHT22;21609;49.298;6.844;2023-02-01T08:27:46;14.80;53.40
35497;DHT22;21609;49.298;6.844;2023-02-01T08:30:11;14.80;53.40
35497;DHT22;21609;49.298;6.844;2023-02-01T08:32:37;14.80;53.40
35497;DHT22;21609;49.298;6.844;2023-02-01T08:35:04;14.80;53.40
35497;DHT22;21609;49.298;6.844;2023-02-01T08:37:30;14.80;53.40
35497;DHT22;21609;49.298;6.844;2023-02-01T08:39:55;14.80;53.40
35497;DHT22;21609;49.298;6.844;2023-02-01T08:42:21;14.80;53.40
35497;DHT22;21609;49.298;6.844;2023-02-01T08:45:06;14.80;53.40
35497;DHT22;21609;49.298;6.844;2023-02-01T08:47:33;14.80;53.40
35497;DHT22;21609;49.298;6.844;2023-02-01T08:49:58;14.80;53.40
35497;DHT22;21609;49.298;6.844;2023-02-01T08:52:24;14.80;53.50
35497;DHT22;21609;49.298;6.844;2023-02-01T08:54:50;14.80;53.50
35497;DHT22;21609;49.298;6.844;2023-02-01T08:57:15;14.80;54.10
35497;DHT22;21609;49.298;6.844;2023-02-01T08:59:41;14.80;53.50
35497;DHT22;21609;49.298;6.844;2023-02-01T09:02:10;14.80;53.50
35497;DHT22;21609;49.298;6.844;2023-02-01T09:04:37;14.90;53.50
35497;DHT22;21609;49.298;6.844;2023-02-01T09:07:02;14.80;53.50
35497;DHT22;21609;49.298;6.844;2023-02-01T09:09:28;14.90;53.50
35497;DHT22;21609;49.298;6.844;2023-02-01T09:11:53;14.80;53.50
35497;DHT22;21609;49.298;6.844;2023-02-01T09:14:19;14.90;53.50
35497;DHT22;21609;49.298;6.844;2023-02-01T09:16:44;14.90;53.50
35497;DHT22;21609;49.298;6.844;2023-02-01T09:19:10;14.90;53.50
35497;DHT22;21609;49.298;6.844;2023-02-01T09:21:36;14.90;53.50
35497;DHT22;21609;49.298;6.844;2023-02-01T09:24:02;15.00;53.60
35497;DHT22;21609;49.298;6.844;2023-02-01T09:26:27;15.00;53.60
35497;DHT22;21609;49.298;6.844;2023-02-01T09:28:53;15.00;53.60
35497;DHT22;21609;49.298;6.844;2023-02-01T09:31:19;15.00;53.60
35497;DHT22;21609;49.298;6.844;2023-02-01T09:33:44;15.10;53.70
35497;DHT22;21609;49.298;6.844;2023-02-01T09:36:10;15.10;53.70
35497;DHT22;21609;49.298;6.844;2023-02-01T09:38:35;15.10;53.70
35497;DHT22;21609;49.298;6.844;2023-02-01T09:41:01;15.20;53.70
35497;DHT22;21609;49.298;6.844;2023-02-01T09:43:53;15.20;53.70
35497;DHT22;21609;49.298;6.844;2023-02-01T09:46:28;15.20;53.70
35497;DHT22;21609;49.298;6.844;2023-02-01T09:48:56;15.20;53.70
35497;DHT22;21609;49.298;6.844;2023-02-01T09:51:27;15.20;53.70
35497;DHT22;21609;49.298;6.844;2023-02-01T09:54:02;15.20;53.70
35497;DHT22;21609;49.298;6.844;2023-02-01T09:56:36;15.20;53.70
35497;DHT22;21609;49.298;6.844;2023-02-01T10:01:49;15.20;53.80
35497;DHT22;21609;49.298;6.844;2023-02-01T10:04:16;15.20;53.80
35497;DHT22;21609;49.298;6.844;2023-02-01T10:09:52;15.10;53.80
35497;DHT22;21609;49.298;6.844;2023-02-01T10:12:30;15.10;53.80
35497;DHT22;21609;49.298;6.844;2023-02-01T10:21:25;15.10;53.80
35497;DHT22;21609;49.298;6.844;2023-02-01T10:26:37;15.00;53.80
35497;DHT22;21609;49.298;6.844;2023-02-01T10:29:04;15.10;53.80
35497;DHT22;21609;49.298;6.844;2023-02-01T10:31:37;15.00;53.80
35497;DHT22;21609;49.298;6.844;2023-02-01T10:34:22;15.00;53.80
35497;DHT22;21609;49.298;6.844;2023-02-01T10:37:00;15.00;53.80
35497;DHT22;21609;49.298;6.844;2023-02-01T10:39:26;15.00;53.80
35497;DHT22;21609;49.298;6.844;2023-02-01T10:41:51;15.00;53.80
35497;DHT22;21609;49.298;6.844;2023-02-01T10:44:22;15.00;53.80
35497;DHT22;21609;49.298;6.844;2023-02-01T10:46:50;15.00;53.80
35497;DHT22;21609;49.298;6.844;2023-02-01T10:49:32;15.10;53.90
35497;DHT22;21609;49.298;6.844;2023-02-01T10:52:14;15.00;53.80
35497;DHT22;21609;49.298;6.844;2023-02-01T10:54:40;15.00;53.80
35497;DHT22;21609;49.298;6.844;2023-02-01T10:57:10;15.00;53.80
35497;DHT22;21609;49.298;6.844;2023-02-01T10:59:37;15.00;53.90
35497;DHT22;21609;49.298;6.844;2023-02-01T11:02:33;15.00;53.80
35497;DHT22;21609;49.298;6.844;2023-02-01T11:05:07;15.00;53.90
35497;DHT22;21609;49.298;6.844;2023-02-01T11:07:39;15.00;53.80
35497;DHT22;21609;49.298;6.844;2023-02-01T11:10:56;15.00;53.80
35497;DHT22;21609;49.298;6.844;2023-02-01T11:13:19;15.00;53.90
35497;DHT22;21609;49.298;6.844;2023-02-01T11:15:46;15.00;53.90
35497;DHT22;21609;49.298;6.844;2023-02-01T11:18:26;15.00;53.80
35497;DHT22;21609;49.298;6.844;2023-02-01T11:20:52;15.00;53.80
35497;DHT22;21609;49.298;6.844;2023-02-01T11:23:20;15.00;53.90
35497;DHT22;21609;49.298;6.844;2023-02-01T11:25:56;15.00;53.90
35497;DHT22;21609;49.298;6.844;2023-02-01T11:28:25;15.00;53.80
35497;DHT22;21609;49.298;6.844;2023-02-01T11:30:54;15.00;53.80
35497;DHT22;21609;49.298;6.844;2023-02-01T11:33:25;15.00;53.90
35497;DHT22;21609;49.298;6.844;2023-02-01T11:35:56;15.00;53.80
35497;DHT22;21609;49.298;6.844;2023-02-01T11:38:27;15.10;53.90
35497;DHT22;21609;49.298;6.844;2023-02-01T11:40:53;15.10;53.80
35497;DHT22;21609;49.298;6.844;2023-02-01T11:43:27;15.10;53.90
35497;DHT22;21609;49.298;6.844;2023-02-01T11:46:03;15.00;53.80
35497;DHT22;21609;49.298;6.844;2023-02-01T11:48:33;15.00;53.80
35497;DHT22;21609;49.298;6.844;2023-02-01T11:56:28;15.00;53.90
35497;DHT22;21609;49.298;6.844;2023-02-01T12:05:14;15.00;53.90
35497;DHT22;21609;49.298;6.844;2023-02-01T12:23:15;15.00;53.90
35497;DHT22;21609;49.298;6.844;2023-02-01T12:25:34;15.00;53.90
35497;DHT22;21609;49.298;6.844;2023-02-01T12:31:05;15.00;53.90
35497;DHT22;21609;49.298;6.844;2023-02-01T12:39:16;15.00;53.90
35497;DHT22;21609;49.298;6.844;2023-02-01T12:41:59;15.00;53.90
35497;DHT22;21609;49.298;6.844;2023-02-01T12:44:44;15.00;54.50
35497;DHT22;21609;49.298;6.844;2023-02-01T12:47:49;15.00;53.90
35497;DHT22;21609;49.298;6.844;2023-02-01T12:52:47;15.00;53.90
35497;DHT22;21609;49.298;6.844;2023-02-01T12:55:36;15.00;53.90
35497;DHT22;21609;49.298;6.844;2023-02-01T12:58:15;15.00;54.00
35497;DHT22;21609;49.298;6.844;2023-02-01T13:01:06;15.00;53.80
35497;DHT22;21609;49.298;6.844;2023-02-01T13:04:02;15.00;53.90
35497;DHT22;21609;49.298;6.844;2023-02-01T13:06:33;15.10;54.00
35497;DHT22;21609;49.298;6.844;2023-02-01T13:09:24;15.10;54.60
35497;DHT22;21609;49.298;6.844;2023-02-01T13:11:54;15.10;54.10
35497;DHT22;21609;49.298;6.844;2023-02-01T13:14:33;15.10;54.10
35497;DHT22;21609;49.298;6.844;2023-02-01T13:17:20;15.10;54.10
35497;DHT22;21609;49.298;6.844;2023-02-01T13:22:30;15.00;54.10
35497;DHT22;21609;49.298;6.844;2023-02-01T13:25:10;15.00;54.10
35497;DHT22;21609;49.298;6.844;2023-02-01T13:27:37;15.00;54.10
35497;DHT22;21609;49.298;6.844;2023-02-01T13:36:22;15.10;54.10
35497;DHT22;21609;49.298;6.844;2023-02-01T13:39:18;15.00;54.00
35497;DHT22;21609;49.298;6.844;2023-02-01T13:42:24;15.00;54.00
35497;DHT22;21609;49.298;6.844;2023-02-01T13:44:50;15.00;54.00
35497;DHT22;21609;49.298;6.844;2023-02-01T13:47:40;15.00;54.00
35497;DHT22;21609;49.298;6.844;2023-02-01T13:50:33;15.00;54.00
35497;DHT22;21609;49.298;6.844;2023-02-01T13:53:11;15.00;54.10
35497;DHT22;21609;49.298;6.844;2023-02-01T13:55:41;15.00;54.10
35497;DHT22;21609;49.298;6.844;2023-02-01T13:58:17;15.00;54.00
35497;DHT22;21609;49.298;6.844;2023-02-01T14:00:43;15.00;54.10
35497;DHT22;21609;49.298;6.844;2023-02-01T14:21:32;15.00;54.10
35497;DHT22;21609;49.298;6.844;2023-02-01T14:24:43;15.00;54.20
35497;DHT22;21609;49.298;6.844;2023-02-01T14:26:46;15.00;54.20
35497;DHT22;21609;49.298;6.844;2023-02-01T14:32:11;15.00;54.20
35497;DHT22;21609;49.298;6.844;2023-02-01T14:34:51;15.00;54.20
35497;DHT22;21609;49.298;6.844;2023-02-01T14:39:59;15.00;54.20
35497;DHT22;21609;49.298;6.844;2023-02-01T14:42:44;15.00;54.10
35497;DHT22;21609;49.298;6.844;2023-02-01T14:47:50;15.00;54.20
35497;DHT22;21609;49.298;6.844;2023-02-01T14:58:06;15.00;54.10
35497;DHT22;21609;49.298;6.844;2023-02-01T15:00:35;15.00;54.10
35497;DHT22;21609;49.298;6.844;2023-02-01T15:06:03;15.00;54.10
35497;DHT22;21609;49.298;6.844;2023-02-01T15:08:37;15.00;54.10
35497;DHT22;21609;49.298;6.844;2023-02-01T15:11:13;15.00;54.10
35497;DHT22;21609;49.298;6.844;2023-02-01T15:13:40;15.00;54.10
35497;DHT22;21609;49.298;6.844;2023-02-01T15:16:11;15.00;54.10
35497;DHT22;21609;49.298;6.844;2023-02-01T15:18:38;15.00;54.10
35497;DHT22;21609;49.298;6.844;2023-02-01T15:21:04;15.00;54.10
35497;DHT22;21609;49.298;6.844;2023-02-01T15:23:32;15.00;54.10
35497;DHT22;21609;49.298;6.844;2023-02-01T15:25:57;15.00;54.00
35497;DHT22;21609;49.298;6.844;2023-02-01T15:28:25;15.00;54.00
35497;DHT22;21609;49.298;6.844;2023-02-01T15:31:03;15.00;54.60
35497;DHT22;21609;49.298;6.844;2023-02-01T15:33:30;15.00;54.00
35497;DHT22;21609;49.298;6.844;2023-02-01T15:38:34;15.00;54.00
35497;DHT22;21609;49.298;6.844;2023-02-01T15:41:18;15.00;54.00
35497;DHT22;21609;49.298;6.844;2023-02-01T15:44:03;15.00;54.00
35497;DHT22;21609;49.298;6.844;2023-02-01T15:46:36;15.00;54.00
35497;DHT22;21609;49.298;6.844;2023-02-01T15:49:04;15.00;54.60
35497;DHT22;21609;49.298;6.844;2023-02-01T15:51:31;15.00;54.00
35497;DHT22;21609;49.298;6.844;2023-02-01T15:54:16;15.00;54.00
35497;DHT22;21609;49.298;6.844;2023-02-01T15:56:49;15.00;54.00
35497;DHT22;21609;49.298;6.844;2023-02-01T15:59:19;15.00;54.00
35497;DHT22;21609;49.298;6.844;2023-02-01T16:01:46;15.00;54.00
35497;DHT22;21609;49.298;6.844;2023-02-01T16:04:24;15.00;54.00
35497;DHT22;21609;49.298;6.844;2023-02-01T16:06:58;15.00;54.00
35497;DHT22;21609;49.298;6.844;2023-02-01T16:09:54;15.00;54.00
35497;DHT22;21609;49.298;6.844;2023-02-01T16:14:55;15.00;54.00
35497;DHT22;21609;49.298;6.844;2023-02-01T16:17:20;15.00;54.00
35497;DHT22;21609;49.298;6.844;2023-02-01T16:19:46;15.00;54.00
35497;DHT22;21609;49.298;6.844;2023-02-01T16:22:12;15.00;54.00
35497;DHT22;21609;49.298;6.844;2023-02-01T16:24:37;15.00;54.00
35497;DHT22;21609;49.298;6.844;2023-02-01T16:27:03;15.00;54.00
35497;DHT22;21609;49.298;6.844;2023-02-01T16:29:30;15.00;53.90
35497;DHT22;21609;49.298;6.844;2023-02-01T16:31:55;15.00;53.90
35497;DHT22;21609;49.298;6.844;2023-02-01T16:34:21;15.00;53.90
35497;DHT22;21609;49.298;6.844;2023-02-01T16:36:47;15.00;53.90
35497;DHT22;21609;49.298;6.844;2023-02-01T16:39:17;15.00;53.90
35497;DHT22;21609;49.298;6.844;2023-02-01T16:41:42;15.00;53.80
35497;DHT22;21609;49.298;6.844;2023-02-01T16:44:08;15.00;53.80
35497;DHT22;21609;49.298;6.844;2023-02-01T16:46:35;15.00;53.90
35497;DHT22;21609;49.298;6.844;2023-02-01T16:49:05;15.00;53.90
35497;DHT22;21609;49.298;6.844;2023-02-01T16:51:32;15.00;53.90
35497;DHT22;21609;49.298;6.844;2023-02-01T16:54:01;15.00;53.90
35497;DHT22;21609;49.298;6.844;2023-02-01T16:56:31;15.00;53.90
35497;DHT22;21609;49.298;6.844;2023-02-01T16:58:57;15.00;54.00
35497;DHT22;21609;49.298;6.844;2023-02-01T17:01:23;15.00;53.90
35497;DHT22;21609;49.298;6.844;2023-02-01T17:03:49;15.00;53.90
35497;DHT22;21609;49.298;6.844;2023-02-01T17:06:17;15.00;54.00
35497;DHT22;21609;49.298;6.844;2023-02-01T17:08:46;15.00;54.00
35497;DHT22;21609;49.298;6.844;2023-02-01T17:11:13;15.00;54.00
35497;DHT22;21609;49.298;6.844;2023-02-01T17:13:40;15.00;54.00
35497;DHT22;21609;49.298;6.844;2023-02-01T17:16:30;15.00;54.00
35497;DHT22;21609;49.298;6.844;2023-02-01T17:19:01;15.00;53.90
35497;DHT22;21609;49.298;6.844;2023-02-01T17:21:29;15.00;53.90
35497;DHT22;21609;49.298;6.844;2023-02-01T17:23:56;15.00;53.90
35497;DHT22;21609;49.298;6.844;2023-02-01T17:26:24;15.00;53.90
35497;DHT22;21609;49.298;6.844;2023-02-01T17:28:50;15.00;53.90
35497;DHT22;21609;49.298;6.844;2023-02-01T17:31:16;15.00;53.90
35497;DHT22;21609;49.298;6.844;2023-02-01T17:33:42;15.00;53.90
35497;DHT22;21609;49.298;6.844;2023-02-01T17:36:15;15.10;53.90
35497;DHT22;21609;49.298;6.844;2023-02-01T17:38:42;15.10;53.80
35497;DHT22;21609;49.298;6.844;2023-02-01T17:41:10;15.10;53.80
35497;DHT22;21609;49.298;6.844;2023-02-01T17:43:36;15.10;53.80
35497;DHT22;21609;49.298;6.844;2023-02-01T17:46:13;15.00;53.80
35497;DHT22;21609;49.298;6.844;2023-02-01T17:48:39;15.00;53.80
35497;DHT22;21609;49.298;6.844;2023-02-01T17:51:16;15.00;53.80
35497;DHT22;21609;49.298;6.844;2023-02-01T17:53:43;15.00;53.90
35497;DHT22;21609;49.298;6.844;2023-02-01T17:56:16;15.00;53.90
35497;DHT22;21609;49.298;6.844;2023-02-01T17:58:43;15.00;53.90